Terminal Aerodrome Forecast
Issued by NWS

Home | Current Version | Previous Version | Text Only | Print | Product List | Glossary On
Versions: 1 2 3 4 5 6 7 8 9 10 11 12 13 14 15 16 17 18 19
000
FTUS41 KILN 271100
TAFLUK
TAF
KLUK 271135Z 2712/2812 03004KT P6SM OVC080
     FM271400 01006KT P6SM SCT080
     FM271900 36007KT P6SM SCT030
     FM280000 VRB03KT P6SM SKC=

USA.gov is the U.S. government's official web portal to all federal, state and local government web resources and services.